Time;durP1;ratioP1;P1;durP2;ratioP2;P2;SDS_P1;SDS_P2;PMS_P1;PMS_P2;Temp;Humidity;BMP_temperature;BMP_pressure;BME280_temperature;BME280_humidity;BME280_pressure;Samples;Min_cycle;Max_cycle;Signal;HPM_P1;HPM_P2
2022/07/06 00:00:17;;;;;;;;;;;30.40;51.30;;;;;;677943;29;1653;-93
2022/07/06 00:00:38;;;;;;;;;;;30.40;51.80;;;;;;676427;29;1232;-90
2022/07/06 00:00:58;;;;;;;;;;;30.40;51.00;;;;;;676646;29;1406;-88
2022/07/06 00:01:19;;;;;;;;;;;30.10;53.10;;;;;;678723;29;1505;-92
2022/07/06 00:01:40;;;;;;;;;;;30.50;50.90;;;;;;677084;29;1524;-93
2022/07/06 00:02:01;;;;;;;;;;;30.40;51.20;;;;;;674056;29;892;-94
2022/07/06 00:02:22;;;;;;;;;;;30.40;51.20;;;;;;677552;29;1313;-93
2022/07/06 00:02:42;;;;;;;;;;;30.50;49.50;;;;;;679266;29;1096;-91
2022/07/06 00:03:03;;;;;;;;;;;30.50;50.00;;;;;;681206;29;1015;-91
2022/07/06 00:03:23;;;;;;;;;;;30.50;50.50;;;;;;679317;29;1287;-89
2022/07/06 00:03:44;;;;;;;;;;;30.50;51.00;;;;;;678780;29;1402;-92
2022/07/06 00:04:05;;;;;;;;;;;30.40;50.50;;;;;;678536;29;1183;-91
2022/07/06 00:04:25;;;;;;;;;;;29.90;51.50;;;;;;678758;29;1293;-92
2022/07/06 00:04:46;;;;;;;;;;;30.50;49.80;;;;;;679093;29;1300;-93
2022/07/06 00:05:07;;;;;;;;;;;30.50;49.60;;;;;;680102;29;1327;-90
2022/07/06 00:05:27;;;;;;;;;;;30.50;50.20;;;;;;680279;29;1136;-93
2022/07/06 00:05:48;;;;;;;;;;;30.50;49.50;;;;;;680568;29;1517;-91
2022/07/06 00:06:09;;;;;;;;;;;30.50;49.70;;;;;;679951;29;1293;-90
2022/07/06 00:06:29;;;;;;;;;;;30.50;49.20;;;;;;679514;29;1368;-91
2022/07/06 00:06:50;;;;;;;;;;;30.50;48.70;;;;;;682034;29;1275;-89
2022/07/06 00:07:10;;;;;;;;;;;30.50;49.70;;;;;;680008;29;809;-91
2022/07/06 00:07:31;;;;;;;;;;;30.40;52.40;;;;;;676943;29;1396;-89
2022/07/06 00:07:52;;;;;;;;;;;30.50;49.70;;;;;;679335;29;1215;-89
2022/07/06 00:08:12;;;;;;;;;;;30.50;50.30;;;;;;678768;29;1331;-89
2022/07/06 00:08:33;;;;;;;;;;;30.40;52.50;;;;;;680953;29;1236;-90
2022/07/06 00:08:53;;;;;;;;;;;30.50;50.40;;;;;;678456;29;1282;-90
2022/07/06 00:09:14;;;;;;;;;;;30.50;50.10;;;;;;678336;29;1328;-90
2022/07/06 00:09:35;;;;;;;;;;;30.00;50.70;;;;;;678389;29;1195;-89
2022/07/06 00:09:55;;;;;;;;;;;30.50;50.00;;;;;;678618;29;1227;-89
2022/07/06 00:10:16;;;;;;;;;;;30.50;49.70;;;;;;678491;29;1209;-91
2022/07/06 00:10:36;;;;;;;;;;;30.40;49.40;;;;;;678592;29;1375;-93
2022/07/06 00:10:57;;;;;;;;;;;30.50;49.90;;;;;;680856;29;1226;-90
2022/07/06 00:11:17;;;;;;;;;;;30.40;50.80;;;;;;675683;29;1194;-93
2022/07/06 00:11:38;;;;;;;;;;;30.50;49.90;;;;;;675617;29;1491;-92
2022/07/06 00:11:59;;;;;;;;;;;29.00;47.70;;;;;;675591;29;1355;-90
2022/07/06 00:12:19;;;;;;;;;;;30.50;48.70;;;;;;675660;29;1196;-90
2022/07/06 00:12:40;;;;;;;;;;;30.50;49.20;;;;;;675796;29;772;-89
2022/07/06 00:13:00;;;;;;;;;;;30.50;50.10;;;;;;675981;29;1305;-90
2022/07/06 00:13:21;;;;;;;;;;;30.50;49.00;;;;;;681315;29;1342;-87
2022/07/06 00:13:42;;;;;;;;;;;30.40;48.60;;;;;;677314;29;1482;-89
2022/07/06 00:14:02;;;;;;;;;;;30.50;49.60;;;;;;675709;29;1378;-91
2022/07/06 00:14:23;;;;;;;;;;;30.50;48.50;;;;;;675357;29;1895;-91
2022/07/06 00:14:44;;;;;;;;;;;28.50;47.50;;;;;;675834;29;1246;-92
2022/07/06 00:15:04;;;;;;;;;;;30.50;48.60;;;;;;678151;29;1183;-90
2022/07/06 00:15:25;;;;;;;;;;;30.50;48.80;;;;;;678434;29;1327;-89
2022/07/06 00:15:46;;;;;;;;;;;30.50;48.60;;;;;;675727;29;1191;-87
2022/07/06 00:16:06;;;;;;;;;;;30.50;48.20;;;;;;676041;29;1334;-92
2022/07/06 00:16:28;;;;;;;;;;;30.50;48.50;;;;;;678704;29;1320;-92
2022/07/06 00:16:48;;;;;;;;;;;30.50;49.00;;;;;;680819;29;1204;-87
2022/07/06 00:17:09;;;;;;;;;;;30.50;48.50;;;;;;681053;29;851;-90
2022/07/06 00:17:30;;;;;;;;;;;29.40;48.70;;;;;;678742;29;1395;-91
2022/07/06 00:17:50;;;;;;;;;;;30.50;49.40;;;;;;680972;29;1501;-89
2022/07/06 00:18:11;;;;;;;;;;;30.50;48.30;;;;;;677569;29;1325;-87
2022/07/06 00:18:31;;;;;;;;;;;30.50;48.80;;;;;;677894;29;1183;-87
2022/07/06 00:18:52;;;;;;;;;;;30.40;48.20;;;;;;675504;29;1258;-88
2022/07/06 00:19:13;;;;;;;;;;;30.40;47.80;;;;;;677814;29;1265;-86
2022/07/06 00:19:33;;;;;;;;;;;30.40;47.80;;;;;;678143;29;1262;-91
2022/07/06 00:19:54;;;;;;;;;;;30.50;48.70;;;;;;678534;29;982;-87
2022/07/06 00:20:14;;;;;;;;;;;30.50;50.10;;;;;;680521;29;1295;-90
2022/07/06 00:20:35;;;;;;;;;;;30.40;49.00;;;;;;675853;29;1164;-91
2022/07/06 00:20:55;;;;;;;;;;;30.40;48.40;;;;;;676036;29;1373;-93
2022/07/06 00:21:16;;;;;;;;;;;30.50;49.20;;;;;;678735;29;1327;-90
2022/07/06 00:21:37;;;;;;;;;;;30.50;48.10;;;;;;678308;29;1306;-94
2022/07/06 00:21:57;;;;;;;;;;;30.40;47.30;;;;;;677839;29;1222;-89
2022/07/06 00:22:18;;;;;;;;;;;30.50;48.20;;;;;;675915;29;1465;-91
2022/07/06 00:22:39;;;;;;;;;;;30.50;48.20;;;;;;676000;29;1218;-89
2022/07/06 00:22:59;;;;;;;;;;;30.50;47.40;;;;;;675772;29;1202;-88
2022/07/06 00:23:20;;;;;;;;;;;30.50;47.70;;;;;;676303;29;1241;-90
2022/07/06 00:23:40;;;;;;;;;;;30.30;48.00;;;;;;677949;29;1355;-88
2022/07/06 00:24:01;;;;;;;;;;;30.50;48.20;;;;;;673587;29;1295;-91
2022/07/06 00:24:21;;;;;;;;;;;30.50;47.60;;;;;;675930;29;1066;-91
2022/07/06 00:24:42;;;;;;;;;;;30.50;47.80;;;;;;675777;29;1378;-94
2022/07/06 00:25:03;;;;;;;;;;;30.50;47.50;;;;;;676208;29;1338;-92
2022/07/06 00:25:23;;;;;;;;;;;30.50;47.60;;;;;;678577;29;1390;-95
2022/07/06 00:25:44;;;;;;;;;;;30.50;48.20;;;;;;680992;29;1364;-95
2022/07/06 00:26:05;;;;;;;;;;;30.40;47.70;;;;;;681091;29;1215;-94
2022/07/06 00:26:25;;;;;;;;;;;30.50;48.10;;;;;;681041;29;1341;-92
2022/07/06 00:26:46;;;;;;;;;;;30.40;49.90;;;;;;678470;29;1202;-93
2022/07/06 00:27:07;;;;;;;;;;;30.40;48.40;;;;;;675392;29;1235;-93
2022/07/06 00:27:27;;;;;;;;;;;30.50;47.30;;;;;;676540;29;1209;-93
2022/07/06 00:27:48;;;;;;;;;;;30.40;48.70;;;;;;676105;29;1186;-90
2022/07/06 00:28:08;;;;;;;;;;;30.50;48.30;;;;;;676057;29;1753;-93
2022/07/06 00:28:29;;;;;;;;;;;30.40;47.80;;;;;;678358;29;1151;-92
2022/07/06 00:28:49;;;;;;;;;;;30.40;47.60;;;;;;678402;29;1320;-94
2022/07/06 00:29:10;;;;;;;;;;;30.40;47.20;;;;;;676048;29;1412;-93
2022/07/06 00:29:31;;;;;;;;;;;30.40;48.20;;;;;;678699;29;1449;-94
2022/07/06 00:29:51;;;;;;;;;;;30.40;47.70;;;;;;678061;29;1317;-94
2022/07/06 00:30:12;;;;;;;;;;;30.50;47.30;;;;;;678193;29;1262;-92
2022/07/06 00:30:32;;;;;;;;;;;30.50;47.30;;;;;;673214;29;1112;-93
2022/07/06 00:30:53;;;;;;;;;;;30.40;47.20;;;;;;673550;29;1219;-93
2022/07/06 00:31:13;;;;;;;;;;;30.40;47.60;;;;;;678848;29;1374;-94
2022/07/06 00:31:35;;;;;;;;;;;30.40;47.60;;;;;;678419;29;1258;-94
2022/07/06 00:31:55;;;;;;;;;;;30.40;48.10;;;;;;678433;29;1198;-93
2022/07/06 00:32:16;;;;;;;;;;;30.50;48.20;;;;;;678685;29;796;-93
2022/07/06 00:32:36;;;;;;;;;;;30.40;48.10;;;;;;678028;29;1190;-95
2022/07/06 00:32:58;;;;;;;;;;;30.40;47.60;;;;;;675605;29;1352;-93
2022/07/06 00:33:18;;;;;;;;;;;30.50;47.30;;;;;;676137;29;1618;-94
2022/07/06 00:33:39;;;;;;;;;;;30.50;47.80;;;;;;678350;29;1511;-92
2022/07/06 00:33:59;;;;;;;;;;;30.50;47.20;;;;;;679933;29;1426;-93
2022/07/06 00:34:20;;;;;;;;;;;30.40;47.00;;;;;;678369;29;1903;-92
2022/07/06 00:34:43;;;;;;;;;;;29.00;46.70;;;;;;675853;29;1195;-94
2022/07/06 00:35:05;;;;;;;;;;;30.40;47.30;;;;;;675797;29;1410;-93
2022/07/06 00:35:25;;;;;;;;;;;30.40;47.60;;;;;;676614;29;1292;-89
2022/07/06 00:35:46;;;;;;;;;;;30.40;47.10;;;;;;675902;29;1305;-92
2022/07/06 00:36:07;;;;;;;;;;;30.40;47.90;;;;;;673687;29;1631;-94
2022/07/06 00:36:28;;;;;;;;;;;30.40;47.70;;;;;;677892;29;1445;-93
2022/07/06 00:36:49;;;;;;;;;;;31.50;48.00;;;;;;680966;29;1520;-94
2022/07/06 00:37:18;;;;;;;;;;;30.40;48.00;;;;;;683709;29;1235;-92
2022/07/06 00:37:39;;;;;;;;;;;30.40;47.70;;;;;;681851;29;1604;-95
2022/07/06 00:37:59;;;;;;;;;;;30.30;48.60;;;;;;681020;29;1822;-91
2022/07/06 00:38:20;;;;;;;;;;;30.40;47.80;;;;;;675992;29;1662;-93
2022/07/06 00:38:49;;;;;;;;;;;30.40;49.00;;;;;;676347;29;1733;-93
2022/07/06 00:39:10;;;;;;;;;;;30.50;48.80;;;;;;678376;29;1290;-94
2022/07/06 00:39:32;;;;;;;;;;;30.30;48.80;;;;;;677522;29;1764;-94
2022/07/06 00:39:53;;;;;;;;;;;30.30;46.80;;;;;;683941;23;1736;-96
2022/07/06 00:40:13;;;;;;;;;;;30.40;47.50;;;;;;674117;29;1808;-94
2022/07/06 00:40:34;;;;;;;;;;;30.40;47.50;;;;;;673381;29;1106;-94
2022/07/06 00:40:55;;;;;;;;;;;30.40;48.00;;;;;;673252;29;1713;-94
2022/07/06 00:41:15;;;;;;;;;;;30.50;49.20;;;;;;670373;29;1647;-94
2022/07/06 00:41:39;;;;;;;;;;;30.40;47.90;;;;;;671012;29;1066;-92
2022/07/06 00:41:59;;;;;;;;;;;30.40;47.80;;;;;;671777;29;1228;-96
2022/07/06 00:42:20;;;;;;;;;;;31.40;48.70;;;;;;671020;29;1347;-91
2022/07/06 00:42:41;;;;;;;;;;;30.30;47.20;;;;;;670127;29;1385;-91
2022/07/06 00:43:02;;;;;;;;;;;30.40;47.20;;;;;;668715;29;1270;-94
2022/07/06 00:43:22;;;;;;;;;;;30.30;47.60;;;;;;670712;29;1231;-91
2022/07/06 00:43:55;;;;;;;;;;;30.40;47.30;;;;;;670595;29;1376;-91
2022/07/06 00:44:15;;;;;;;;;;;30.30;46.90;;;;;;672566;29;1356;-87
2022/07/06 00:44:36;;;;;;;;;;;30.30;47.30;;;;;;671274;29;1233;-94
2022/07/06 00:44:57;;;;;;;;;;;30.30;49.10;;;;;;668476;29;1303;-93
2022/07/06 00:45:18;;;;;;;;;;;30.30;48.70;;;;;;670626;29;1264;-91
2022/07/06 00:45:38;;;;;;;;;;;30.30;47.40;;;;;;670602;29;1349;-94
2022/07/06 00:45:59;;;;;;;;;;;30.40;49.30;;;;;;670299;29;1357;-92
2022/07/06 00:46:21;;;;;;;;;;;30.30;49.00;;;;;;668328;29;1220;-91
2022/07/06 00:46:41;;;;;;;;;;;30.30;47.40;;;;;;670574;29;1093;-91
2022/07/06 00:47:02;;;;;;;;;;;30.30;47.40;;;;;;673287;29;1319;-94
2022/07/06 00:47:23;;;;;;;;;;;30.30;47.50;;;;;;673519;29;1316;-93
2022/07/06 00:48:06;;;;;;;;;;;30.30;47.30;;;;;;694117;23;1775;-93
2022/07/06 00:48:32;;;;;;;;;;;30.30;47.50;;;;;;681419;29;1121;-96
2022/07/06 00:48:52;;;;;;;;;;;30.20;47.30;;;;;;677518;29;1286;-96
2022/07/06 00:50:31;;;;;;;;;;;30.20;47.40;;;;;;686985;28;638;-93
2022/07/06 00:50:57;;;;;;;;;;;30.20;48.00;;;;;;687550;28;1205;-92
2022/07/06 00:51:42;;;;;;;;;;;30.30;47.40;;;;;;684782;29;1110;-96
2022/07/06 00:52:03;;;;;;;;;;;31.00;48.00;;;;;;673825;29;1323;-94
2022/07/06 00:52:25;;;;;;;;;;;30.20;47.80;;;;;;674114;29;1334;-95
2022/07/06 00:53:09;;;;;;;;;;;30.20;47.30;;;;;;682968;23;1808;-91
2022/07/06 00:53:30;;;;;;;;;;;29.60;46.60;;;;;;677923;29;1281;-89
2022/07/06 00:53:50;;;;;;;;;;;30.10;48.60;;;;;;676456;29;1236;-88
2022/07/06 00:54:14;;;;;;;;;;;30.20;49.70;;;;;;677540;29;1207;-90
2022/07/06 00:54:36;;;;;;;;;;;30.10;49.80;;;;;;675628;29;1918;-90
2022/07/06 00:54:57;;;;;;;;;;;30.20;47.70;;;;;;675511;29;1650;-92
2022/07/06 00:55:19;;;;;;;;;;;30.20;47.80;;;;;;674871;29;1627;-90
2022/07/06 00:55:40;;;;;;;;;;;30.20;47.60;;;;;;673035;29;1749;-90
2022/07/06 00:56:01;;;;;;;;;;;30.20;47.40;;;;;;673223;29;1339;-94
2022/07/06 00:56:22;;;;;;;;;;;30.20;48.20;;;;;;670592;29;1455;-93
2022/07/06 00:56:43;;;;;;;;;;;30.20;48.50;;;;;;670494;29;1267;-89
2022/07/06 00:57:04;;;;;;;;;;;29.10;50.70;;;;;;669983;29;1143;-93
2022/07/06 00:57:24;;;;;;;;;;;30.20;47.90;;;;;;673613;29;1325;-91
2022/07/06 00:57:45;;;;;;;;;;;30.20;47.30;;;;;;676065;29;1758;-91
2022/07/06 00:58:07;;;;;;;;;;;30.20;47.50;;;;;;677910;29;1088;-90
2022/07/06 00:58:27;;;;;;;;;;;30.20;47.50;;;;;;675973;29;1274;-92
2022/07/06 00:58:48;;;;;;;;;;;30.20;47.90;;;;;;675276;29;1301;-91
2022/07/06 00:59:09;;;;;;;;;;;30.20;48.20;;;;;;670533;29;1240;-91
2022/07/06 00:59:29;;;;;;;;;;;30.20;47.50;;;;;;670731;29;851;-91
2022/07/06 00:59:50;;;;;;;;;;;30.10;49.20;;;;;;670849;29;1395;-91
2022/07/06 01:00:12;;;;;;;;;;;30.10;48.80;;;;;;673542;29;1163;-88
2022/07/06 01:00:44;;;;;;;;;;;30.10;47.70;;;;;;673434;29;1299;-91
2022/07/06 01:01:07;;;;;;;;;;;30.10;49.00;;;;;;678451;29;1235;-94
2022/07/06 01:01:28;;;;;;;;;;;30.10;48.10;;;;;;675851;29;1389;-92
2022/07/06 01:01:48;;;;;;;;;;;30.10;49.60;;;;;;673706;29;1010;-88
2022/07/06 01:02:09;;;;;;;;;;;30.10;47.90;;;;;;672427;29;1152;-90
2022/07/06 01:02:33;;;;;;;;;;;30.10;51.10;;;;;;673076;29;1211;-93
2022/07/06 01:02:54;;;;;;;;;;;30.00;47.30;;;;;;674647;29;1226;-90
2022/07/06 01:03:14;;;;;;;;;;;30.10;49.60;;;;;;676515;29;1266;-91
2022/07/06 01:03:35;;;;;;;;;;;30.10;49.30;;;;;;678220;29;1222;-91
2022/07/06 01:03:56;;;;;;;;;;;30.10;48.50;;;;;;678164;29;1163;-90
2022/07/06 01:04:16;;;;;;;;;;;30.10;48.30;;;;;;675708;29;1300;-96
2022/07/06 01:04:37;;;;;;;;;;;30.10;47.20;;;;;;675420;29;1242;-90
2022/07/06 01:04:57;;;;;;;;;;;30.10;47.60;;;;;;675840;29;1180;-88
2022/07/06 01:05:18;;;;;;;;;;;30.10;47.30;;;;;;671015;29;1238;-91
2022/07/06 01:05:39;;;;;;;;;;;30.10;48.40;;;;;;673158;29;1072;-92
2022/07/06 01:06:02;;;;;;;;;;;30.10;48.10;;;;;;673182;29;1176;-94
2022/07/06 01:06:23;;;;;;;;;;;30.10;48.30;;;;;;673570;29;1267;-90
2022/07/06 01:06:45;;;;;;;;;;;30.00;48.10;;;;;;670970;29;1187;-95
2022/07/06 01:07:12;;;;;;;;;;;30.10;47.40;;;;;;670811;29;817;-95
2022/07/06 01:07:36;;;;;;;;;;;30.10;48.20;;;;;;671369;29;1282;-89
2022/07/06 01:07:57;;;;;;;;;;;30.10;47.40;;;;;;672357;29;1291;-92
2022/07/06 01:08:17;;;;;;;;;;;30.10;48.70;;;;;;673037;29;1312;-89
2022/07/06 01:08:38;;;;;;;;;;;30.10;49.00;;;;;;675338;29;1290;-89
2022/07/06 01:08:59;;;;;;;;;;;30.10;47.50;;;;;;675672;29;1275;-89
2022/07/06 01:09:22;;;;;;;;;;;30.10;49.10;;;;;;675606;29;1272;-91
2022/07/06 01:09:43;;;;;;;;;;;30.10;48.50;;;;;;672386;29;1203;-89
2022/07/06 01:10:04;;;;;;;;;;;30.10;48.60;;;;;;669812;29;1399;-91
2022/07/06 01:10:25;;;;;;;;;;;30.10;47.50;;;;;;670482;29;1204;-90
2022/07/06 01:10:46;;;;;;;;;;;30.10;50.80;;;;;;670551;29;1215;-89
2022/07/06 01:11:07;;;;;;;;;;;28.90;47.70;;;;;;671118;29;1243;-91
2022/07/06 01:11:27;;;;;;;;;;;30.10;47.70;;;;;;670801;29;1467;-89
2022/07/06 01:11:48;;;;;;;;;;;30.10;48.00;;;;;;669935;29;1691;-86
2022/07/06 01:12:09;;;;;;;;;;;30.10;47.20;;;;;;670428;29;1667;-86
2022/07/06 01:12:30;;;;;;;;;;;30.10;47.40;;;;;;670966;29;1632;-86
2022/07/06 01:12:50;;;;;;;;;;;30.10;47.30;;;;;;670012;29;1533;-89
2022/07/06 01:13:11;;;;;;;;;;;30.10;47.80;;;;;;668190;29;1383;-86
2022/07/06 01:13:32;;;;;;;;;;;30.10;48.20;;;;;;668121;29;1290;-91
2022/07/06 01:13:53;;;;;;;;;;;30.10;47.30;;;;;;668099;29;1310;-90
2022/07/06 01:14:14;;;;;;;;;;;30.10;48.40;;;;;;667758;29;1462;-86
2022/07/06 01:14:35;;;;;;;;;;;30.10;48.00;;;;;;667891;29;1899;-90
2022/07/06 01:14:56;;;;;;;;;;;30.00;47.30;;;;;;668164;29;1271;-90
2022/07/06 01:15:16;;;;;;;;;;;30.00;48.40;;;;;;668022;29;1255;-88
2022/07/06 01:15:37;;;;;;;;;;;30.00;48.60;;;;;;670496;29;1238;-89
2022/07/06 01:16:07;;;;;;;;;;;30.00;49.50;;;;;;668664;29;1336;-93
2022/07/06 01:16:27;;;;;;;;;;;30.20;47.60;;;;;;670592;29;1248;-91
2022/07/06 01:16:48;;;;;;;;;;;30.10;48.40;;;;;;670427;29;1326;-89
2022/07/06 01:17:09;;;;;;;;;;;30.00;47.70;;;;;;672806;29;1614;-87
2022/07/06 01:17:30;;;;;;;;;;;30.00;49.30;;;;;;675471;29;1709;-89
2022/07/06 01:17:51;;;;;;;;;;;30.00;48.00;;;;;;675609;29;1615;-88
2022/07/06 01:18:12;;;;;;;;;;;30.00;47.60;;;;;;672995;29;1385;-89
2022/07/06 01:18:32;;;;;;;;;;;30.10;48.10;;;;;;672902;29;1203;-87
2022/07/06 01:18:53;;;;;;;;;;;30.00;48.70;;;;;;670374;29;1225;-90
2022/07/06 01:19:13;;;;;;;;;;;30.10;47.60;;;;;;665579;29;1491;-87
2022/07/06 01:19:34;;;;;;;;;;;30.10;47.80;;;;;;665346;29;1142;-88
2022/07/06 01:19:54;;;;;;;;;;;30.00;47.20;;;;;;665614;29;1227;-88
2022/07/06 01:20:15;;;;;;;;;;;30.00;47.50;;;;;;668073;29;1173;-88
2022/07/06 01:20:35;;;;;;;;;;;30.00;47.90;;;;;;670736;29;794;-87
2022/07/06 01:21:09;;;;;;;;;;;30.00;48.30;;;;;;672972;29;1418;-89
2022/07/06 01:21:29;;;;;;;;;;;30.10;47.30;;;;;;671036;29;1371;-89
2022/07/06 01:21:50;;;;;;;;;;;30.00;48.30;;;;;;670432;29;1232;-90
2022/07/06 01:22:10;;;;;;;;;;;30.00;47.70;;;;;;669663;29;1189;-89
2022/07/06 01:22:31;;;;;;;;;;;30.00;48.00;;;;;;667795;29;1216;-88
2022/07/06 01:23:01;;;;;;;;;;;30.00;48.70;;;;;;667960;29;1215;-85
2022/07/06 01:23:24;;;;;;;;;;;30.00;47.40;;;;;;663213;29;1606;-86
2022/07/06 01:23:46;;;;;;;;;;;30.00;50.10;;;;;;662849;29;1330;-87
2022/07/06 01:24:07;;;;;;;;;;;30.00;47.80;;;;;;664792;29;1323;-87
2022/07/06 01:24:27;;;;;;;;;;;30.00;49.00;;;;;;667171;29;1256;-90
2022/07/06 01:24:48;;;;;;;;;;;30.00;48.30;;;;;;665411;29;1181;-88
2022/07/06 01:25:09;;;;;;;;;;;30.00;48.80;;;;;;665330;29;1252;-85
2022/07/06 01:25:29;;;;;;;;;;;30.00;47.50;;;;;;665942;29;1353;-86
2022/07/06 01:25:50;;;;;;;;;;;30.00;49.20;;;;;;667997;29;1319;-88
2022/07/06 01:26:12;;;;;;;;;;;30.00;48.90;;;;;;665286;29;1456;-86
2022/07/06 01:26:33;;;;;;;;;;;28.20;46.60;;;;;;667907;29;1336;-87
2022/07/06 01:26:53;;;;;;;;;;;30.00;48.00;;;;;;668207;29;1270;-88
2022/07/06 01:27:14;;;;;;;;;;;30.10;47.40;;;;;;668138;29;1479;-87
2022/07/06 01:27:37;;;;;;;;;;;30.10;50.00;;;;;;668875;29;1245;-87
2022/07/06 01:27:58;;;;;;;;;;;30.10;47.70;;;;;;671222;29;1320;-89
2022/07/06 01:28:18;;;;;;;;;;;30.10;47.30;;;;;;670911;29;1188;-86
2022/07/06 01:28:39;;;;;;;;;;;30.10;47.80;;;;;;671563;29;1312;-87
2022/07/06 01:29:00;;;;;;;;;;;30.10;47.50;;;;;;671711;29;1380;-85
2022/07/06 01:29:20;;;;;;;;;;;30.10;47.90;;;;;;672385;29;1265;-87
2022/07/06 01:29:41;;;;;;;;;;;30.10;47.70;;;;;;669340;29;1402;-85
2022/07/06 01:30:02;;;;;;;;;;;30.10;48.60;;;;;;669364;29;1391;-86
2022/07/06 01:30:22;;;;;;;;;;;30.10;48.00;;;;;;669140;29;1306;-87
2022/07/06 01:30:45;;;;;;;;;;;30.10;48.10;;;;;;669870;29;1050;-87
2022/07/06 01:31:13;;;;;;;;;;;30.10;49.30;;;;;;668601;29;1256;-87
2022/07/06 01:31:33;;;;;;;;;;;30.10;48.00;;;;;;670777;29;1125;-87
2022/07/06 01:31:55;;;;;;;;;;;30.10;47.90;;;;;;669268;29;1192;-87
2022/07/06 01:32:16;;;;;;;;;;;30.10;47.80;;;;;;668093;29;1376;-85
2022/07/06 01:32:36;;;;;;;;;;;30.10;47.50;;;;;;668007;29;1301;-89
2022/07/06 01:32:57;;;;;;;;;;;30.10;47.70;;;;;;669280;29;955;-87
2022/07/06 01:33:18;;;;;;;;;;;30.10;47.70;;;;;;667905;29;1192;-87
2022/07/06 01:33:38;;;;;;;;;;;30.20;47.20;;;;;;670309;29;1197;-87
2022/07/06 01:33:59;;;;;;;;;;;30.20;47.70;;;;;;670385;29;1215;-86
2022/07/06 01:34:20;;;;;;;;;;;30.20;47.40;;;;;;670418;29;1229;-87
2022/07/06 01:34:43;;;;;;;;;;;30.20;48.90;;;;;;667681;29;1896;-87
2022/07/06 01:35:07;;;;;;;;;;;30.20;47.80;;;;;;667693;29;1371;-86
2022/07/06 01:35:29;;;;;;;;;;;30.20;46.90;;;;;;669414;29;1629;-86
2022/07/06 01:35:49;;;;;;;;;;;30.10;46.80;;;;;;670451;29;849;-88
2022/07/06 01:36:10;;;;;;;;;;;30.20;48.00;;;;;;670389;29;915;-86
2022/07/06 01:36:31;;;;;;;;;;;30.10;47.30;;;;;;671660;29;980;-86
2022/07/06 01:36:51;;;;;;;;;;;30.10;47.80;;;;;;673013;29;1211;-88
2022/07/06 01:37:12;;;;;;;;;;;30.10;49.10;;;;;;673679;29;1224;-86
2022/07/06 01:37:33;;;;;;;;;;;30.20;48.30;;;;;;675485;29;1246;-88
2022/07/06 01:37:53;;;;;;;;;;;30.10;47.80;;;;;;675467;29;1218;-87
2022/07/06 01:38:14;;;;;;;;;;;30.10;48.90;;;;;;675555;29;1195;-87
2022/07/06 01:38:47;;;;;;;;;;;30.20;48.20;;;;;;675399;29;1191;-86
2022/07/06 01:39:08;;;;;;;;;;;30.20;46.80;;;;;;673629;29;1204;-89
2022/07/06 01:39:29;;;;;;;;;;;30.20;46.90;;;;;;671092;29;1267;-87
2022/07/06 01:39:55;;;;;;;;;;;30.20;47.20;;;;;;670281;29;1365;-88
2022/07/06 01:40:18;;;;;;;;;;;30.40;47.30;;;;;;667672;29;1314;-88
2022/07/06 01:40:39;;;;;;;;;;;30.10;48.30;;;;;;667767;29;1171;-89
2022/07/06 01:41:05;;;;;;;;;;;30.10;48.00;;;;;;669336;29;1194;-89
2022/07/06 01:41:26;;;;;;;;;;;30.10;47.80;;;;;;670435;29;1192;-88
2022/07/06 01:41:46;;;;;;;;;;;30.20;48.80;;;;;;670281;29;1133;-88
2022/07/06 01:42:07;;;;;;;;;;;30.80;47.90;;;;;;670248;29;1497;-87
2022/07/06 01:42:28;;;;;;;;;;;30.20;48.70;;;;;;670479;29;777;-88
2022/07/06 01:42:48;;;;;;;;;;;30.20;47.50;;;;;;668983;29;1219;-88
2022/07/06 01:43:09;;;;;;;;;;;30.20;48.40;;;;;;667815;29;1280;-85
2022/07/06 01:43:30;;;;;;;;;;;29.60;48.70;;;;;;668196;29;1228;-87
2022/07/06 01:43:50;;;;;;;;;;;30.10;49.10;;;;;;672801;29;1302;-89
2022/07/06 01:44:11;;;;;;;;;;;30.20;49.00;;;;;;673026;29;1358;-88
2022/07/06 01:44:31;;;;;;;;;;;30.10;48.60;;;;;;670613;29;1332;-87
2022/07/06 01:44:53;;;;;;;;;;;30.10;48.10;;;;;;672862;29;1350;-88
2022/07/06 01:45:13;;;;;;;;;;;30.20;47.20;;;;;;672980;29;1097;-86
2022/07/06 01:45:34;;;;;;;;;;;30.20;49.80;;;;;;670023;29;1200;-88
2022/07/06 01:45:54;;;;;;;;;;;30.20;49.10;;;;;;667931;29;1302;-87
2022/07/06 01:46:15;;;;;;;;;;;30.20;48.60;;;;;;667792;29;1390;-89
2022/07/06 01:46:36;;;;;;;;;;;30.20;47.60;;;;;;667870;29;1406;-89
2022/07/06 01:46:56;;;;;;;;;;;29.00;47.80;;;;;;667716;29;1375;-89
2022/07/06 01:47:17;;;;;;;;;;;30.20;48.60;;;;;;668151;29;1438;-88
2022/07/06 01:47:38;;;;;;;;;;;29.50;47.90;;;;;;670396;29;1366;-87
2022/07/06 01:47:58;;;;;;;;;;;30.40;48.60;;;;;;667826;29;1192;-89
2022/07/06 01:48:19;;;;;;;;;;;30.20;49.10;;;;;;668039;29;1217;-89
2022/07/06 01:48:40;;;;;;;;;;;30.20;49.10;;;;;;667980;29;1217;-88
2022/07/06 01:49:00;;;;;;;;;;;30.20;47.60;;;;;;667777;29;1195;-87
2022/07/06 01:49:21;;;;;;;;;;;30.10;49.00;;;;;;668295;29;1333;-88
2022/07/06 01:49:41;;;;;;;;;;;28.30;47.30;;;;;;668121;29;1213;-88
2022/07/06 01:50:05;;;;;;;;;;;30.20;48.10;;;;;;667829;29;1214;-88
2022/07/06 01:50:26;;;;;;;;;;;30.20;48.00;;;;;;667901;29;1380;-87
2022/07/06 01:50:46;;;;;;;;;;;30.20;50.10;;;;;;666116;29;1249;-91
2022/07/06 01:51:07;;;;;;;;;;;30.10;48.00;;;;;;666986;29;1173;-90
2022/07/06 01:51:27;;;;;;;;;;;29.90;47.80;;;;;;669270;29;1331;-88
2022/07/06 01:51:48;;;;;;;;;;;30.10;47.80;;;;;;670924;29;1237;-88
2022/07/06 01:52:09;;;;;;;;;;;30.20;46.60;;;;;;668247;29;1263;-87
2022/07/06 01:52:29;;;;;;;;;;;30.20;47.20;;;;;;668730;29;937;-87
2022/07/06 01:52:50;;;;;;;;;;;30.20;47.20;;;;;;670471;29;1394;-88
2022/07/06 01:53:10;;;;;;;;;;;30.20;47.10;;;;;;670769;29;1284;-85
2022/07/06 01:53:31;;;;;;;;;;;30.20;46.80;;;;;;673646;29;1160;-86
2022/07/06 01:53:52;;;;;;;;;;;30.10;46.60;;;;;;676020;29;1249;-87
2022/07/06 01:54:13;;;;;;;;;;;30.10;47.00;;;;;;678548;29;1175;-88
2022/07/06 01:54:33;;;;;;;;;;;30.10;47.50;;;;;;678430;29;1980;-87
2022/07/06 01:54:55;;;;;;;;;;;30.10;48.20;;;;;;675802;29;1281;-89
2022/07/06 01:55:16;;;;;;;;;;;30.10;46.70;;;;;;675589;29;1314;-89
2022/07/06 01:55:36;;;;;;;;;;;30.10;47.80;;;;;;675503;29;1184;-92
2022/07/06 01:55:57;;;;;;;;;;;30.10;47.10;;;;;;675736;29;1337;-90
2022/07/06 01:56:21;;;;;;;;;;;30.10;46.80;;;;;;675594;29;1375;-90
2022/07/06 01:56:41;;;;;;;;;;;30.10;46.60;;;;;;676657;29;1188;-89
2022/07/06 01:57:02;;;;;;;;;;;30.10;46.60;;;;;;675206;29;1271;-90
2022/07/06 01:57:23;;;;;;;;;;;30.10;46.60;;;;;;675752;29;1239;-89
2022/07/06 01:57:43;;;;;;;;;;;30.10;46.90;;;;;;672557;29;1303;-89
2022/07/06 01:58:04;;;;;;;;;;;30.10;47.00;;;;;;673219;29;1401;-90
2022/07/06 01:58:24;;;;;;;;;;;30.10;47.20;;;;;;673252;29;1456;-91
2022/07/06 01:58:45;;;;;;;;;;;30.10;47.00;;;;;;673539;29;1367;-90
2022/07/06 01:59:06;;;;;;;;;;;30.10;46.70;;;;;;672943;29;1203;-91
2022/07/06 01:59:27;;;;;;;;;;;30.10;47.60;;;;;;673617;29;1295;-89
2022/07/06 01:59:47;;;;;;;;;;;30.10;47.50;;;;;;672926;29;1198;-89
2022/07/06 02:00:08;;;;;;;;;;;30.10;47.00;;;;;;673174;29;1442;-90
2022/07/06 02:00:29;;;;;;;;;;;30.10;46.70;;;;;;673411;29;876;-91
2022/07/06 02:00:49;;;;;;;;;;;30.10;46.70;;;;;;673303;29;1211;-89
2022/07/06 02:01:10;;;;;;;;;;;30.10;46.50;;;;;;672958;29;1227;-91
2022/07/06 02:01:31;;;;;;;;;;;30.10;46.50;;;;;;673319;29;1237;-90
2022/07/06 02:01:52;;;;;;;;;;;30.10;46.50;;;;;;672890;29;1485;-89
2022/07/06 02:02:13;;;;;;;;;;;30.10;47.10;;;;;;672744;29;1212;-90
2022/07/06 02:02:34;;;;;;;;;;;30.10;47.10;;;;;;672960;29;1193;-91
2022/07/06 02:02:54;;;;;;;;;;;30.10;47.70;;;;;;673143;29;1290;-93
2022/07/06 02:03:15;;;;;;;;;;;30.10;47.50;;;;;;672629;29;1192;-88
2022/07/06 02:03:36;;;;;;;;;;;30.10;48.70;;;;;;673225;29;1346;-90
2022/07/06 02:03:56;;;;;;;;;;;30.10;46.80;;;;;;672573;29;1223;-91
2022/07/06 02:04:17;;;;;;;;;;;31.00;47.70;;;;;;672874;29;1400;-90
2022/07/06 02:04:37;;;;;;;;;;;30.10;48.00;;;;;;672822;29;1199;-90
2022/07/06 02:04:58;;;;;;;;;;;30.10;48.10;;;;;;672780;29;1300;-90
2022/07/06 02:05:18;;;;;;;;;;;30.10;47.90;;;;;;672602;29;1202;-89
2022/07/06 02:05:39;;;;;;;;;;;30.10;48.20;;;;;;673176;29;1387;-92
2022/07/06 02:06:00;;;;;;;;;;;30.10;48.30;;;;;;672659;29;1417;-89
2022/07/06 02:06:21;;;;;;;;;;;30.10;47.70;;;;;;672898;29;1186;-90
2022/07/06 02:06:41;;;;;;;;;;;30.10;48.20;;;;;;672966;29;1160;-90
2022/07/06 02:07:02;;;;;;;;;;;30.10;49.00;;;;;;672913;29;1359;-89
2022/07/06 02:07:22;;;;;;;;;;;30.10;47.80;;;;;;672612;29;1272;-90
2022/07/06 02:07:43;;;;;;;;;;;30.10;47.40;;;;;;675187;29;1314;-91
2022/07/06 02:08:04;;;;;;;;;;;30.10;48.40;;;;;;672555;29;1322;-89
2022/07/06 02:08:24;;;;;;;;;;;30.10;47.20;;;;;;672880;29;1308;-87
2022/07/06 02:08:45;;;;;;;;;;;30.10;46.70;;;;;;672797;29;1307;-89
2022/07/06 02:09:06;;;;;;;;;;;30.10;46.80;;;;;;672699;29;1391;-89
2022/07/06 02:09:26;;;;;;;;;;;30.10;46.70;;;;;;672698;29;1339;-93